Flight Track Log - Related Links

Times and Time Zones

All times are in EDT time to prevent confusion due to time zone crossing. See the AAL963 flight status page for this flight to view local times or setup timezone preferences in your user account.

Time Position Orientation Groundspeed Altitude Reporting Facility
EDT Latitude Longitude Course Direction KTS MPH feet Rate Location/Type
Wed 10:11:32 PM 32.8770 -97.0510 180° South 189 217 1,400  Level FlightAware ADS-B
Wed 10:11:51 PM 32.8590 -97.0520 183° South 189 217 2,300 1,756 Climbing FlightAware ADS-B
Wed 10:12:13 PM 32.8340 -97.0580 191° South 222 255 2,600 857 Climbing FlightAware ADS-B
Wed 10:12:33 PM 32.8130 -97.0640 194° South 239 275 2,900 1,333 Climbing FlightAware ADS-B
Wed 10:12:49 PM 32.7940 -97.0680 190° South 250 288 3,400 2,000 Climbing FlightAware ADS-B
Wed 10:13:09 PM 32.7710 -97.0730 190° South 257 296 4,100 2,143 Climbing FlightAware ADS-B
Wed 10:13:17 PM 32.7610 -97.0740 185° South 254 292 4,400 2,143 Climbing FlightAware ADS-B
Wed 10:13:37 PM 32.7380 -97.0690 170° South 260 299 5,100 2,100 Climbing FlightAware ADS-B
Wed 10:13:57 PM 32.7170 -97.0580 156° South 267 307 5,800 2,100 Climbing FlightAware ADS-B
Wed 10:14:17 PM 32.6950 -97.0450 154° Southeast 268 308 6,500 2,100 Climbing FlightAware ADS-B
Wed 10:14:37 PM 32.6710 -97.0310 154° Southeast 275 316 7,200 1,650 Climbing FlightAware ADS-B
Wed 10:14:57 PM 32.6530 -97.0210 155° Southeast 281 323 7,600 2,000 Climbing FlightAware ADS-B
Wed 10:15:22 PM 32.6190 -97.0020 155° Southeast 286 329 8,700 2,217 Climbing FlightAware ADS-B
Wed 10:15:43 PM 32.5920 -96.9870 155° Southeast 294 338 9,300 1,902 Climbing FlightAware ADS-B
Wed 10:16:03 PM 32.5670 -96.9730 155° Southeast 298 343 10,000 1,607 Climbing FlightAware ADS-B
Wed 10:16:39 PM 32.5200 -96.9460 154° Southeast 323 372 10,800 1,083 Climbing FlightAware ADS-B
Wed 10:17:15 PM 32.4690 -96.9180 155° Southeast 356 410 11,300 882 Climbing FlightAware ADS-B
Wed 10:17:47 PM 32.4190 -96.8900 155° Southeast 385 443 11,800 1,324 Climbing FlightAware ADS-B
Wed 10:18:23 PM 32.3590 -96.8560 154° Southeast 398 458 12,800 1,714 Climbing FlightAware ADS-B
Wed 10:18:57 PM 32.3030 -96.8260 156° South 407 468 13,800 1,739 Climbing FlightAware ADS-B
Wed 10:19:32 PM 32.2390 -96.7980 160° South 414 476 14,800 1,833 Climbing FlightAware ADS-B
Wed 10:20:09 PM 32.1740 -96.7730 162° South 417 480 16,000 1,869 Climbing FlightAware ADS-B
Wed 10:20:33 PM 32.1268 -96.7554 162° South 422 486 16,700 1,726 Climbing FlightAware ADS-B
Wed 10:21:22 PM 32.0345 -96.7204 162° South 426 490 18,100 1,735 Climbing FlightAware ADS-B
Wed 10:21:56 PM 31.9684 -96.6952 162° South 434 499 19,100 1,913 Climbing FlightAware ADS-B
Wed 10:22:31 PM 31.9012 -96.6698 162° South 435 501 20,300 1,853 Climbing FlightAware ADS-B
Wed 10:23:04 PM 31.8390 -96.6450 161° South 438 504 21,200 1,600 Climbing FlightAware ADS-B
Wed 10:23:16 PM 31.8163 -96.6359 161° South 440 506 21,500 1,286 Climbing FlightAware ADS-B
Wed 10:23:46 PM 31.7573 -96.6113 160° South 447 514 22,100 1,400 Climbing FlightAware ADS-B
Wed 10:24:16 PM 31.6980 -96.5867 161° South 450 518 22,900 1,475 Climbing FlightAware ADS-B
Wed 10:24:47 PM 31.6376 -96.5621 161° South 456 525 23,600 1,258 Climbing FlightAware ADS-B
Wed 10:25:18 PM 31.5755 -96.5369 161° South 462 532 24,200 1,279 Climbing FlightAware ADS-B
Wed 10:25:48 PM 31.5132 -96.5117 161° South 466 536 24,900 1,180 Climbing FlightAware ADS-B
Wed 10:26:19 PM 31.4491 -96.4873 162° South 474 545 25,400 1,048 Climbing FlightAware ADS-B
Wed 10:26:51 PM 31.3831 -96.4630 163° South 478 550 26,000 1,263 Climbing FlightAware ADS-B
Wed 10:28:13 PM 31.2099 -96.3980 162° South 480 552 27,800 1,307 Climbing FlightAware ADS-B
Wed 10:28:32 PM 31.1721 -96.3737 147° Southeast 486 559 28,200 1,161 Climbing FlightAware ADS-B
Wed 10:28:44 PM 31.1513 -96.3538 141° Southeast 489 563 28,400 1,000 Climbing FlightAware ADS-B
Wed 10:28:50 PM 31.1416 -96.3422 134° Southeast 491 565 28,500 1,333 Climbing FlightAware ADS-B
Wed 10:29:02 PM 31.1252 -96.3182 129° Southeast 493 567 28,800 1,189 Climbing FlightAware ADS-B
Wed 10:30:36 PM 30.9997 -96.1130 125° Southeast 496 571 30,600 852 Climbing FlightAware ADS-B
Wed 10:31:37 PM 30.9179 -95.9801 126° Southeast 492 566 31,000 197 Climbing FlightAware ADS-B
Wed 10:32:38 PM 30.8372 -95.8501 126° Southeast 493 567 31,000  Level FlightAware ADS-B
Wed 10:33:08 PM 30.7969 -95.7852 126° Southeast 492 566 31,000  Level FlightAware ADS-B
Wed 10:33:40 PM 30.7547 -95.7176 126° Southeast 492 566 31,000  Level FlightAware ADS-B
Wed 10:34:10 PM 30.7139 -95.6521 126° Southeast 491 565 31,000  Level FlightAware ADS-B
Wed 10:34:41 PM 30.6737 -95.5876 126° Southeast 489 563 31,000  Level FlightAware ADS-B
Wed 10:35:55 PM 30.5754 -95.4305 126° Southeast 489 563 31,000  Level FlightAware ADS-B
Wed 10:36:26 PM 30.5336 -95.3640 126° Southeast 489 563 31,000  Level FlightAware ADS-B
Wed 10:36:56 PM 30.4934 -95.3001 126° Southeast 488 562 31,000  Level FlightAware ADS-B
Wed 10:37:57 PM 30.4127 -95.1720 126° Southeast 487 560 31,000  Level FlightAware ADS-B
Wed 10:38:58 PM 30.3321 -95.0444 126° Southeast 485 558 31,000  Level FlightAware ADS-B
Wed 10:39:59 PM 30.2514 -94.9173 126° Southeast 486 559 31,000  Level FlightAware ADS-B
Wed 10:40:59 PM 30.1708 -94.7905 126° Southeast 487 560 31,000  Level FlightAware ADS-B
Wed 10:41:29 PM 30.1301 -94.7268 126° Southeast 488 562 31,000  Level FlightAware ADS-B
Wed 10:42:00 PM 30.0896 -94.6632 126° Southeast 487 560 31,000  Level FlightAware ADS-B
Wed 10:43:31 PM 29.9679 -94.4734 127° Southeast 486 559 31,000  Level FlightAware ADS-B
Wed 10:44:01 PM 29.9272 -94.4099 126° Southeast 488 562 31,000  Level FlightAware ADS-B
Wed 10:44:32 PM 29.8866 -94.3469 127° Southeast 489 563 31,000  Level FlightAware ADS-B
Wed 10:45:02 PM 29.8455 -94.2832 127° Southeast 489 563 31,000  Level FlightAware ADS-B
Wed 10:45:33 PM 29.8044 -94.2195 127° Southeast 490 564 31,000  Level FlightAware ADS-B
Wed 10:46:03 PM 29.7634 -94.1562 127° Southeast 490 564 31,000  Level FlightAware ADS-B
Wed 10:47:04 PM 29.6761 -94.0329 134° Southeast 491 565 31,000  Level FlightAware ADS-B
Wed 10:47:15 PM 29.6579 -94.0144 139° Southeast 491 565 31,000  Level FlightAware ADS-B
Wed 10:47:45 PM 29.6038 -93.9661 142° Southeast 491 565 31,000  Level FlightAware ADS-B
Wed 10:48:15 PM 29.5486 -93.9192 144° Southeast 491 565 31,000  Level FlightAware ADS-B
Wed 10:48:46 PM 29.4928 -93.8720 144° Southeast 491 565 31,000  Level FlightAware ADS-B
Wed 10:49:16 PM 29.4376 -93.8253 144° Southeast 491 565 31,000  Level FlightAware ADS-B
Wed 10:49:46 PM 29.3824 -93.7783 143° Southeast 490 564 31,000  Level FlightAware ADS-B
Wed 10:50:16 PM 29.3278 -93.7317 143° Southeast 491 565 31,000  Level FlightAware ADS-B
Wed 10:50:55 PM 29.2560 -93.6706 143° Southeast 492 566 31,000  Level FlightAware ADS-B
Wed 10:51:37 PM 29.1798 -93.6059 143° Southeast 494 568 31,000  Level FlightAware ADS-B
Wed 10:52:53 PM 29.0564 -93.5003 143° Southeast 499 574 31,000 -44 Level Houston Center
Wed 10:53:54 PM 28.9467 -93.4081 144° Southeast 494 568 30,900 -49 Descending Houston Center
Wed 10:54:56 PM 28.8361 -93.3158 144° Southeast 492 566 30,900 49 Level Houston Center
Wed 10:55:57 PM 28.7267 -93.2219 143° Southeast 492 566 31,000 49 Climbing Houston Center
Wed 10:56:58 PM 28.6161 -93.1322 145° Southeast 491 565 31,000  Level Houston Center
Wed 10:57:59 PM 28.4847 -93.0217 144° Southeast 490 564 31,000  Level Houston Center
Wed 10:59:00 PM 28.3750 -92.9294 144° Southeast 491 565 31,000  Level Houston Center
Wed 11:00:01 PM 28.2642 -92.8400 145° Southeast 490 564 31,000 -49 Level Houston Center
Wed 11:01:02 PM 28.1550 -92.7472 143° Southeast 491 565 30,900 -49 Descending Houston Center
Wed 11:02:04 PM 28.0433 -92.6550 144° Southeast 493 567 30,900  Level Houston Center
Wed 11:03:05 PM 27.9322 -92.5656 145° Southeast 493 567 30,900 49 Level Houston Center
Wed 11:04:06 PM 27.8219 -92.4739 144° Southeast 492 566 31,000  Climbing Houston Center
Wed 11:05:07 PM 27.7100 -92.3833 144° Southeast 493 567 30,900 -49 Descending Houston Center
Wed 11:06:08 PM 27.5997 -92.2928 144° Southeast 493 567 30,900 49 Level Houston Center
Wed 11:07:09 PM 27.4881 -92.2022 144° Southeast 493 567 31,000  Climbing Houston Center
Wed 11:08:10 PM 27.3539 -92.0942 144° Southeast 493 567 30,900  Descending Houston Center
Wed 11:09:12 PM 27.2422 -92.0050 145° Southeast 493 567 31,000  Climbing Houston Center
Wed 11:10:13 PM 27.1306 -91.9136 144° Southeast 496 571 30,900  Descending Houston Center
Wed 11:11:14 PM 27.0181 -91.8236 145° Southeast 496 571 31,000 49 Climbing Houston Center
Wed 11:12:15 PM 26.9056 -91.7333 144° Southeast 497 572 31,000  Level Houston Center
Wed 11:13:16 PM 26.7836 -91.6353 144° Southeast 495 570 31,000 -49 Level Houston Center
Wed 11:14:17 PM 26.6947 -91.5656 145° Southeast 492 566 30,900  Descending Houston Center
Wed 11:15:18 PM 26.5625 -91.4603 145° Southeast 491 565 31,000 Climbing Houston Center
Wed 11:17:00 PM 26.3803 -91.3085 143° Southeast  Level FlightAware Approximate
Wed 11:24:00 PM 25.6143 -90.7108 145° Southeast  Level FlightAware Approximate
Wed 11:25:00 PM 25.5046 -90.6261 145° Southeast  Level FlightAware Approximate
Wed 11:26:00 PM 25.3948 -90.5416 145° Southeast  Level FlightAware Approximate
Wed 11:27:00 PM 25.2850 -90.4573 145° Southeast  Level FlightAware Approximate
Wed 11:28:00 PM 25.1751 -90.3732 145° Southeast  Level FlightAware Approximate
Wed 11:29:00 PM 25.0659 -90.2881 145° Southeast  Level FlightAware Approximate
Wed 11:30:00 PM 24.9566 -90.2031 145° Southeast  Level FlightAware Approximate
Wed 11:31:00 PM 24.8473 -90.1183 145° Southeast  Level FlightAware Approximate
Wed 11:32:00 PM 24.7380 -90.0336 145° Southeast  Level FlightAware Approximate
Wed 11:33:00 PM 24.6286 -89.9491 145° Southeast  Level FlightAware Approximate
Wed 11:34:00 PM 24.5191 -89.8647 145° Southeast  Level FlightAware Approximate
Wed 11:34:49 PM 24.3910 -89.7680 145° Southeast 31,000  Level FlightAware ADS-B
Wed 11:36:21 PM 24.2080 -89.6300 145° Southeast 500 575 31,000  Level FlightAware ADS-B
Wed 11:37:01 PM 24.1290 -89.5710 146° Southeast 500 575 31,000  Level FlightAware ADS-B
Wed 11:37:54 PM 24.0500 -89.5110 145° Southeast 500 575 31,000  Level FlightAware ADS-B
Wed 11:38:30 PM 23.9920 -89.4660 145° Southeast 500 575 31,000  Level FlightAware ADS-B
Wed 11:39:06 PM 23.9340 -89.4220 145° Southeast 500 575 31,000  Level FlightAware ADS-B
Wed 11:39:42 PM 23.8760 -89.3780 145° Southeast 500 575 31,000  Level FlightAware ADS-B
Wed 11:40:25 PM 23.7340 -89.2740 146° Southeast 498 573 31,000  Level FlightAware ADS-B
Wed 11:41:06 PM 23.6480 -89.2090 145° Southeast 499 574 31,000  Level FlightAware ADS-B
Wed 11:42:04 PM 23.5600 -89.1430 145° Southeast 499 574 31,000  Level FlightAware ADS-B
Wed 11:42:44 PM 23.4760 -89.0800 145° Southeast 501 577 31,000  Level FlightAware ADS-B
Wed 11:43:22 PM 23.3920 -89.0180 146° Southeast 501 577 31,000  Level FlightAware ADS-B
Wed 11:43:56 PM 23.3330 -88.9740 146° Southeast 502 578 31,000  Level FlightAware ADS-B
Wed 11:44:33 PM 23.2520 -88.9130 145° Southeast 502 578 31,000  Level FlightAware ADS-B
Wed 11:45:06 PM 23.1990 -88.8740 146° Southeast 502 578 31,000  Level FlightAware ADS-B
Wed 11:45:52 PM 23.1040 -88.8030 145° Southeast 500 575 31,000  Level FlightAware ADS-B
Wed 11:46:29 PM 23.0350 -88.7520 146° Southeast 499 574 31,000  Level FlightAware ADS-B
Wed 11:47:02 PM 22.9720 -88.7050 146° Southeast 499 574 31,000  Level FlightAware ADS-B
Wed 11:47:42 PM 22.9040 -88.6550 146° Southeast 499 574 31,000  Level FlightAware ADS-B
Wed 11:48:12 PM 22.8410 -88.6080 145° Southeast 499 574 31,000  Level FlightAware ADS-B
Wed 11:48:48 PM 22.7320 -88.5290 146° Southeast 497 572 31,000  Level FlightAware ADS-B
Wed 11:49:26 PM 22.6590 -88.4740 145° Southeast 497 572 31,000  Level FlightAware ADS-B
Wed 11:50:02 PM 22.5920 -88.4210 144° Southeast 497 572 31,000  Level FlightAware ADS-B
Wed 11:50:36 PM 22.5340 -88.3650 138° Southeast 495 570 31,000  Level FlightAware ADS-B
Wed 11:51:11 PM 22.5070 -88.3370 136° Southeast 494 568 31,000  Level FlightAware ADS-B
Wed 11:51:44 PM 22.4550 -88.2840 137° Southeast 493 567 31,000  Level FlightAware ADS-B
Wed 11:52:29 PM 22.3780 -88.2060 137° Southeast 495 570 31,000  Level FlightAware ADS-B
Wed 11:53:01 PM 22.3210 -88.1480 137° Southeast 496 571 31,000  Level FlightAware ADS-B
Wed 11:53:38 PM 22.2630 -88.0890 137° Southeast 497 572 31,000  Level FlightAware ADS-B
Wed 11:54:15 PM 22.2130 -88.0390 137° Southeast 496 571 31,000  Level FlightAware ADS-B
Wed 11:54:46 PM 22.1240 -87.9490 137° Southeast 496 571 31,000  Level FlightAware ADS-B
Wed 11:55:19 PM 22.0720 -87.8970 137° Southeast 495 570 31,000  Level FlightAware ADS-B
Wed 11:55:57 PM 22.0100 -87.8340 137° Southeast 497 572 31,000  Level FlightAware ADS-B
Wed 11:56:28 PM 21.9530 -87.7770 137° Southeast 495 570 31,000 514 Level FlightAware ADS-B
Wed 11:57:07 PM 21.8850 -87.7090 137° Southeast 495 570 31,600 1,040 Climbing FlightAware ADS-B
Wed 11:57:43 PM 21.8320 -87.6560 137° Southeast 491 565 32,300 1,120 Climbing FlightAware ADS-B
Wed 11:58:22 PM 21.7680 -87.5920 137° Southeast 489 563 33,000 592 Climbing FlightAware ADS-B
Wed 11:58:54 PM 21.7140 -87.5380 137° Southeast 486 559 33,000  Level FlightAware ADS-B
Wed 11:59:36 PM 21.6450 -87.4690 137° Southeast 486 559 33,000  Level FlightAware ADS-B
Thu 12:00:17 AM 21.5770 -87.4020 137° Southeast 487 560 33,000  Level FlightAware ADS-B
Thu 12:00:51 AM 21.5200 -87.3450 137° Southeast 488 562 33,000  Level FlightAware ADS-B
Thu 12:01:31 AM 21.4530 -87.2790 137° Southeast 488 562 33,000  Level FlightAware ADS-B
Thu 12:02:05 AM 21.3970 -87.2250 138° Southeast 489 563 33,000  Level FlightAware ADS-B
Thu 12:02:47 AM 21.3260 -87.1550 137° Southeast 488 562 33,000  Level FlightAware ADS-B
Thu 12:03:36 AM 21.2460 -87.0760 137° Southeast 486 559 33,000  Level FlightAware ADS-B
Thu 12:04:13 AM 21.1840 -87.0150 137° Southeast 488 562 33,000  Level FlightAware ADS-B
Thu 12:04:53 AM 21.1190 -86.9510 137° Southeast 489 563 33,000  Level FlightAware ADS-B
Thu 12:05:23 AM 21.0680 -86.9000 137° Southeast 488 562 33,000  Level FlightAware ADS-B
Thu 12:05:58 AM 21.0230 -86.8380 128° Southeast 485 558 33,000  Level FlightAware ADS-B
Thu 12:06:34 AM 20.9780 -86.7690 125° Southeast 486 559 33,000  Level FlightAware ADS-B
Thu 12:07:13 AM 20.9110 -86.6700 126° Southeast 487 560 33,000  Level FlightAware ADS-B
Thu 12:07:45 AM 20.8710 -86.6090 125° Southeast 486 559 33,000  Level FlightAware ADS-B
Thu 12:08:17 AM 20.8290 -86.5460 125° Southeast 488 562 33,000  Level FlightAware ADS-B
Thu 12:08:52 AM 20.7930 -86.4900 125° Southeast 486 559 33,000  Level FlightAware ADS-B
Thu 12:09:31 AM 20.7500 -86.4180 123° Southeast 485 558 33,000  Level FlightAware ADS-B
Thu 12:10:22 AM 20.6970 -86.3240 121° Southeast 485 558 33,000  Level FlightAware ADS-B
Thu 12:10:58 AM 20.6620 -86.2610 121° Southeast 485 558 33,000  Level FlightAware ADS-B
Thu 12:11:34 AM 20.6260 -86.1980 121° Southeast 485 558 33,000  Level FlightAware ADS-B
Thu 12:12:05 AM 20.5080 -86.1300 152° Southeast 501 577 33,000  Level FlightAware ADS-B
Thu 12:12:39 AM 20.4480 -86.0930 150° Southeast 500 575 33,000  Level FlightAware ADS-B
Thu 12:13:16 AM 20.3850 -86.0540 150° Southeast 500 575 33,000  Level FlightAware ADS-B
Thu 12:13:52 AM 20.3240 -86.0170 150° Southeast 500 575 33,000  Level FlightAware ADS-B
Thu 12:14:28 AM 20.2630 -85.9790 150° Southeast 500 575 33,000  Level FlightAware ADS-B
Thu 12:15:04 AM 20.2010 -85.9410 150° Southeast 500 575 33,000  Level FlightAware ADS-B
Thu 12:15:40 AM 20.1400 -85.9030 150° Southeast 500 575 33,000  Level FlightAware ADS-B
Thu 12:16:17 AM 20.0770 -85.8650 150° Southeast 500 575 33,000  Level FlightAware ADS-B
Thu 12:17:07 AM 19.9380 -85.7010 132° Southeast 494 568 33,000  Level FlightAware ADS-B
Thu 12:17:43 AM 19.8750 -85.6470 141° Southeast 496 571 33,000  Level FlightAware ADS-B
Thu 12:18:15 AM 19.8170 -85.5970 141° Southeast 495 570 33,000  Level FlightAware ADS-B
Thu 12:18:53 AM 19.7510 -85.5400 141° Southeast 488 562 33,000  Level FlightAware ADS-B
Thu 12:19:25 AM 19.6940 -85.4910 141° Southeast 486 559 33,000  Level FlightAware ADS-B
Thu 12:20:01 AM 19.6340 -85.4400 141° Southeast 488 562 33,000  Level FlightAware ADS-B
Thu 12:20:43 AM 19.5660 -85.3800 140° Southeast 490 564 33,000  Level FlightAware ADS-B
Thu 12:21:20 AM 19.5110 -85.3310 140° Southeast 490 564 33,000  Level FlightAware ADS-B
Thu 12:21:57 AM 19.4570 -85.2830 140° Southeast 490 564 33,000  Level FlightAware ADS-B
Thu 12:22:33 AM 19.4040 -85.2360 140° Southeast 490 564 33,000  Level FlightAware ADS-B
Thu 12:23:13 AM 19.2950 -85.1500 143° Southeast 489 563 33,000  Level FlightAware ADS-B
Thu 12:23:58 AM 19.2230 -85.0860 140° Southeast 489 563 33,000  Level FlightAware ADS-B
Thu 12:24:34 AM 19.1700 -85.0390 140° Southeast 489 563 33,000  Level FlightAware ADS-B
Thu 12:25:10 AM 19.1170 -84.9920 140° Southeast 489 563 33,000  Level FlightAware ADS-B
Thu 12:25:46 AM 19.0640 -84.9450 140° Southeast 489 563 33,000  Level FlightAware ADS-B
Thu 12:26:20 AM 19.0140 -84.9010 140° Southeast 489 563 33,000  Level FlightAware ADS-B
Thu 12:26:56 AM 18.9610 -84.8540 140° Southeast 489 563 33,000  Level FlightAware ADS-B
Thu 12:27:32 AM 18.9080 -84.8070 140° Southeast 489 563 33,000  Level FlightAware ADS-B
Thu 12:28:09 AM 18.8530 -84.7580 140° Southeast 489 563 33,000  Level FlightAware ADS-B
Thu 12:28:45 AM 18.8000 -84.7110 140° Southeast 489 563 33,000  Level FlightAware ADS-B
Thu 12:29:21 AM 18.7470 -84.6640 140° Southeast 489 563 33,000  Level FlightAware ADS-B
Thu 12:29:57 AM 18.6940 -84.6170 140° Southeast 489 563 33,000  Level FlightAware ADS-B
Thu 12:30:33 AM 18.6410 -84.5700 140° Southeast 489 563 33,000  Level FlightAware ADS-B
Thu 12:31:10 AM 18.5870 -84.5220 140° Southeast 489 563 33,000  Level FlightAware ADS-B
Thu 12:31:46 AM 18.5340 -84.4750 140° Southeast 489 563 33,000  Level FlightAware ADS-B
Thu 12:32:22 AM 18.4800 -84.4280 140° Southeast 489 563 33,000  Level FlightAware ADS-B
Thu 12:32:58 AM 18.4270 -84.3810 140° Southeast 489 563 33,000  Level FlightAware ADS-B
Thu 12:35:00 AM 18.2908 -84.1329 125° Southeast  Level FlightAware Approximate
Thu 12:36:00 AM 18.2147 -84.0173 125° Southeast  Level FlightAware Approximate
Thu 12:37:00 AM 18.1385 -83.9017 125° Southeast  Level FlightAware Approximate
Thu 12:38:00 AM 18.0622 -83.7862 125° Southeast  Level FlightAware Approximate
Thu 12:39:00 AM 17.9859 -83.6708 125° Southeast  Level FlightAware Approximate
Thu 12:40:00 AM 17.8994 -83.5644 135° Southeast  Level FlightAware Approximate
Thu 12:41:00 AM 17.8041 -83.4660 136° Southeast  Level FlightAware Approximate
Thu 12:42:00 AM 17.7087 -83.3677 136° Southeast  Level FlightAware Approximate
Thu 12:43:00 AM 17.6132 -83.2695 136° Southeast  Level FlightAware Approximate
Thu 12:44:00 AM 17.5177 -83.1714 136° Southeast  Level FlightAware Approximate
Thu 12:45:00 AM 17.4221 -83.0735 136° Southeast  Level FlightAware Approximate
Thu 12:46:00 AM 17.3244 -82.9780 139° Southeast  Level FlightAware Approximate
Thu 12:47:00 AM 17.2237 -82.8859 139° Southeast  Level FlightAware Approximate
Thu 12:48:00 AM 17.1229 -82.7940 139° Southeast  Level FlightAware Approximate
Thu 12:49:00 AM 17.0222 -82.7021 139° Southeast  Level FlightAware Approximate
Thu 12:50:00 AM 16.9213 -82.6104 139° Southeast  Level FlightAware Approximate
Thu 12:51:00 AM 16.8204 -82.5188 139° Southeast  Level FlightAware Approximate
Thu 12:52:00 AM 16.7195 -82.4272 139° Southeast  Level FlightAware Approximate
Thu 12:53:00 AM 16.6186 -82.3357 139° Southeast  Level FlightAware Approximate
Thu 12:54:00 AM 16.5176 -82.2444 139° Southeast  Level FlightAware Approximate
Thu 12:55:00 AM 16.4155 -82.1545 141° Southeast  Level FlightAware Approximate
Thu 12:56:00 AM 16.3111 -82.0674 141° Southeast  Level FlightAware Approximate
Thu 12:57:00 AM 16.2068 -81.9804 141° Southeast  Level FlightAware Approximate
Thu 12:58:00 AM 16.1023 -81.8935 141° Southeast  Level FlightAware Approximate
Thu 12:59:00 AM 15.9979 -81.8067 141° Southeast  Level FlightAware Approximate
Thu 01:00:00 AM 15.8934 -81.7200 141° Southeast  Level FlightAware Approximate
Thu 01:01:00 AM 15.7891 -81.6336 141° Southeast  Level FlightAware Approximate
Thu 01:02:00 AM 15.6847 -81.5472 141° Southeast  Level FlightAware Approximate
Thu 01:03:00 AM 15.5803 -81.4609 141° Southeast  Level FlightAware Approximate
Thu 01:04:00 AM 15.4759 -81.3747 141° Southeast  Level FlightAware Approximate
Thu 01:05:00 AM 15.3714 -81.2886 142° Southeast  Level FlightAware Approximate
Thu 01:06:00 AM 15.2669 -81.2026 142° Southeast  Level FlightAware Approximate
Thu 01:07:00 AM 15.1624 -81.1166 142° Southeast  Level FlightAware Approximate
Thu 01:08:00 AM 15.0578 -81.0308 142° Southeast  Level FlightAware Approximate
Thu 01:09:00 AM 14.9534 -80.9448 141° Southeast  Level FlightAware Approximate
Thu 01:10:00 AM 14.8491 -80.8586 141° Southeast  Level FlightAware Approximate
Thu 01:11:00 AM 14.7449 -80.7726 141° Southeast  Level FlightAware Approximate
Thu 01:12:00 AM 14.6405 -80.6865 141° Southeast  Level FlightAware Approximate
Thu 01:13:00 AM 14.5360 -80.6005 141° Southeast  Level FlightAware Approximate
Thu 01:14:00 AM 14.4314 -80.5145 141° Southeast  Level FlightAware Approximate
Thu 01:15:00 AM 14.3268 -80.4286 141° Southeast  Level FlightAware Approximate
Thu 01:16:00 AM 14.2222 -80.3428 142° Southeast  Level FlightAware Approximate
Thu 01:17:00 AM 14.1175 -80.2570 142° Southeast  Level FlightAware Approximate
Thu 01:18:00 AM 14.0128 -80.1713 142° Southeast  Level FlightAware Approximate
Thu 01:19:00 AM 13.9081 -80.0857 142° Southeast  Level FlightAware Approximate
Thu 01:20:00 AM 13.8033 -80.0002 142° Southeast  Level FlightAware Approximate
Thu 01:21:00 AM 13.6985 -79.9148 142° Southeast  Level FlightAware Approximate
Thu 01:22:00 AM 13.5937 -79.8294 142° Southeast  Level FlightAware Approximate
Thu 01:23:00 AM 13.4889 -79.7441 142° Southeast  Level FlightAware Approximate
Thu 01:24:00 AM 13.3840 -79.6589 142° Southeast  Level FlightAware Approximate
Thu 01:25:00 AM 13.2791 -79.5738 142° Southeast  Level FlightAware Approximate
Thu 01:26:00 AM 13.1742 -79.4887 142° Southeast  Level FlightAware Approximate
Thu 01:27:00 AM 13.0692 -79.4037 142° Southeast  Level FlightAware Approximate
Thu 01:28:00 AM 12.9642 -79.3188 142° Southeast  Level FlightAware Approximate
Thu 01:29:00 AM 12.8592 -79.2340 142° Southeast  Level FlightAware Approximate
Thu 01:30:00 AM 12.7542 -79.1492 142° Southeast  Level FlightAware Approximate
Thu 01:31:00 AM 12.6491 -79.0645 142° Southeast  Level FlightAware Approximate
Thu 01:32:00 AM 12.5440 -78.9799 142° Southeast  Level FlightAware Approximate
Thu 01:33:00 AM 12.4389 -78.8953 142° Southeast  Level FlightAware Approximate
Thu 01:34:00 AM 12.3337 -78.8108 142° Southeast  Level FlightAware Approximate
Thu 01:35:00 AM 12.2286 -78.7264 142° Southeast  Level FlightAware Approximate
Thu 01:36:00 AM 12.1234 -78.6420 142° Southeast  Level FlightAware Approximate
Thu 01:37:00 AM 12.0180 -78.5579 142° Southeast  Level FlightAware Approximate
Thu 01:38:00 AM 11.9126 -78.4739 142° Southeast  Level FlightAware Approximate
Thu 01:39:00 AM 11.8071 -78.3900 142° Southeast  Level FlightAware Approximate
Thu 01:40:00 AM 11.7017 -78.3061 142° Southeast  Level FlightAware Approximate
Thu 01:41:00 AM 11.5962 -78.2222 142° Southeast  Level FlightAware Approximate
Thu 01:42:00 AM 11.4907 -78.1384 142° Southeast  Level FlightAware Approximate
Thu 01:43:00 AM 11.3852 -78.0547 142° Southeast  Level FlightAware Approximate
Thu 01:43:21 AM 11.0200 -77.5560 142° Southeast 484 557 33,000  Level FlightAware ADS-B
Thu 01:44:00 AM 11.2796 -77.9711 142° Southeast  Level FlightAware Approximate
Thu 01:44:03 AM 10.9390 -77.5340 165° South 483 556 33,000  Level FlightAware ADS-B
Thu 01:44:37 AM 10.8540 -77.5160 168° South 493 567 33,000  Level FlightAware ADS-B
Thu 01:45:12 AM 10.7750 -77.5010 169° South 492 566 33,000  Level FlightAware ADS-B
Thu 01:45:47 AM 10.6910 -77.4840 169° South 491 565 33,000  Level FlightAware ADS-B
Thu 01:46:23 AM 10.6150 -77.4690 169° South 488 562 33,000  Level FlightAware ADS-B
Thu 01:47:01 AM 10.5440 -77.4530 168° South 488 562 33,000  Level FlightAware ADS-B
Thu 01:47:37 AM 10.4760 -77.4390 169° South 488 562 33,000  Level FlightAware ADS-B
Thu 01:48:13 AM 10.4090 -77.4240 168° South 488 562 33,000  Level FlightAware ADS-B
Thu 01:48:48 AM 10.2880 -77.4360 186° South 471 542 33,000  Level FlightAware ADS-B
Thu 01:49:24 AM 10.2080 -77.4290 175° South 469 540 33,000  Level FlightAware ADS-B
Thu 01:49:59 AM 10.1330 -77.4230 175° South 470 541 33,000  Level FlightAware ADS-B
Thu 01:50:39 AM 10.0450 -77.4150 175° South 469 540 33,000  Level FlightAware ADS-B
Thu 01:51:19 AM 9.9540 -77.4070 175° South 465 535 33,000  Level FlightAware ADS-B
Thu 01:51:55 AM 9.8760 -77.4000 175° South 465 535 33,000  Level FlightAware ADS-B
Thu 01:52:25 AM 9.8100 -77.3930 174° South 467 537 33,000  Level FlightAware ADS-B
Thu 01:53:00 AM 9.7330 -77.3860 175° South 468 539 33,000  Level FlightAware ADS-B
Thu 01:53:45 AM 9.6510 -77.3780 175° South 467 537 33,000  Level FlightAware ADS-B
Thu 01:54:20 AM 9.5560 -77.3650 172° South 478 550 33,000  Level FlightAware ADS-B
Thu 01:55:02 AM 9.4650 -77.3450 168° South 479 551 33,000  Level FlightAware ADS-B
Thu 01:55:42 AM 9.3800 -77.3260 168° South 480 552 33,000  Level FlightAware ADS-B
Thu 01:56:17 AM 9.3040 -77.3070 166° South 481 554 33,000  Level FlightAware ADS-B
Thu 01:56:52 AM 9.2280 -77.2870 165° South 483 556 33,000  Level FlightAware ADS-B
Thu 01:57:27 AM 9.1510 -77.2670 166° South 484 557 33,000  Level FlightAware ADS-B
Thu 01:58:02 AM 9.0760 -77.2470 165° South 484 557 33,000  Level FlightAware ADS-B
Thu 01:58:37 AM 9.0000 -77.2200 161° South 484 557 33,000  Level FlightAware ADS-B
Thu 01:59:12 AM 8.9400 -77.1710 141° Southeast 483 556 33,000  Level FlightAware ADS-B
Thu 01:59:47 AM 8.9000 -77.1030 121° Southeast 486 559 33,000  Level FlightAware ADS-B
Thu 02:00:22 AM 8.8750 -77.0270 108° East 488 562 33,000  Level FlightAware ADS-B
Thu 02:00:57 AM 8.8510 -76.9500 108° East 487 560 33,000  Level FlightAware ADS-B
Thu 02:01:32 AM 8.8240 -76.8870 113° Southeast 486 559 33,000  Level FlightAware ADS-B
Thu 02:02:22 AM 8.7370 -76.8070 138° Southeast 483 556 33,000  Level FlightAware ADS-B
Thu 02:02:57 AM 8.6680 -76.7650 149° Southeast 486 559 33,000  Level FlightAware ADS-B
Thu 02:03:32 AM 8.6050 -76.7190 144° Southeast 481 554 33,000  Level FlightAware ADS-B
Thu 02:04:07 AM 8.5440 -76.6750 144° Southeast 480 552 33,000  Level FlightAware ADS-B
Thu 02:04:37 AM 8.4810 -76.6440 154° Southeast 478 550 33,000  Level FlightAware ADS-B
Thu 02:05:13 AM 8.4050 -76.6310 170° South 478 550 33,000  Level FlightAware ADS-B
Thu 02:05:42 AM 8.3380 -76.6270 177° South 480 552 33,000  Level FlightAware ADS-B
Thu 02:06:27 AM 8.2390 -76.6330 183° South 480 552 33,000  Level FlightAware ADS-B
Thu 02:07:07 AM 8.1520 -76.6580 196° South 483 556 33,000  Level FlightAware ADS-B
Thu 02:07:43 AM 8.0780 -76.6790 196° South 483 556 33,000  Level FlightAware ADS-B
Thu 02:08:22 AM 7.9950 -76.7020 195° South 484 557 33,000  Level FlightAware ADS-B
Thu 02:08:52 AM 7.9260 -76.7220 196° South 486 559 33,000  Level FlightAware ADS-B
Thu 02:09:27 AM 7.8490 -76.7420 194° South 488 562 33,000  Level FlightAware ADS-B
Thu 02:09:57 AM 7.7810 -76.7460 183° South 488 562 33,000  Level FlightAware ADS-B
Thu 02:10:37 AM 7.6920 -76.7410 177° South 488 562 33,000  Level FlightAware ADS-B
Thu 02:11:12 AM 7.6120 -76.7350 176° South 486 559 33,000  Level FlightAware ADS-B
Thu 02:11:49 AM 7.5380 -76.7300 176° South 486 559 33,000  Level FlightAware ADS-B
Thu 02:12:22 AM 7.4560 -76.7250 177° South 485 558 33,000  Level FlightAware ADS-B
Thu 02:12:57 AM 7.3780 -76.7120 171° South 484 557 33,000  Level FlightAware ADS-B
Thu 02:13:27 AM 7.3150 -76.6880 159° South 483 556 33,000  Level FlightAware ADS-B
Thu 02:14:03 AM 7.2510 -76.6400 143° Southeast 482 555 33,000  Level FlightAware ADS-B
Thu 02:14:37 AM 7.1980 -76.5840 134° Southeast 484 557 33,000  Level FlightAware ADS-B
Thu 02:15:12 AM 7.1440 -76.5250 133° Southeast 483 556 33,000  Level FlightAware ADS-B
Thu 02:15:47 AM 7.0960 -76.4730 133° Southeast 485 558 33,000  Level FlightAware ADS-B
Thu 02:16:22 AM 7.0380 -76.4100 133° Southeast 488 562 33,000  Level FlightAware ADS-B
Thu 02:16:57 AM 6.9830 -76.3510 133° Southeast 489 563 33,000  Level FlightAware ADS-B
Thu 02:17:32 AM 6.9300 -76.2940 133° Southeast 490 564 33,000  Level FlightAware ADS-B
Thu 02:18:07 AM 6.8760 -76.2350 133° Southeast 491 565 33,000  Level FlightAware ADS-B
Thu 02:18:40 AM 6.8270 -76.1830 134° Southeast 493 567 33,000  Level FlightAware ADS-B
Thu 02:19:16 AM 6.7730 -76.1250 133° Southeast 495 570 33,000  Level FlightAware ADS-B
Thu 02:19:52 AM 6.7120 -76.0590 133° Southeast 496 571 33,000  Level FlightAware ADS-B
Thu 02:20:27 AM 6.6560 -75.9980 133° Southeast 497 572 33,000  Level FlightAware ADS-B
Thu 02:21:02 AM 6.6020 -75.9400 133° Southeast 495 570 33,000  Level FlightAware ADS-B
Thu 02:21:37 AM 6.5470 -75.8810 133° Southeast 497 572 33,000  Level FlightAware ADS-B
Thu 02:22:11 AM 6.4980 -75.8220 130° Southeast 496 571 33,000  Level FlightAware ADS-B
Thu 02:22:47 AM 6.4530 -75.7560 124° Southeast 497 572 33,000  Level FlightAware ADS-B
Thu 02:23:19 AM 6.4110 -75.6930 124° Southeast 497 572 33,000  Level FlightAware ADS-B
Thu 02:23:55 AM 6.3680 -75.6230 122° Southeast 496 571 33,000  Level FlightAware ADS-B
Thu 02:24:35 AM 6.3190 -75.5430 122° Southeast 495 570 33,000  Level FlightAware ADS-B
Thu 02:25:05 AM 6.2830 -75.4840 122° Southeast 495 570 33,000  Level FlightAware ADS-B
Thu 02:25:40 AM 6.2430 -75.4180 121° Southeast 497 572 33,000  Level FlightAware ADS-B
Thu 02:26:14 AM 6.2010 -75.3480 121° Southeast 498 573 33,000  Level FlightAware ADS-B
Thu 02:26:55 AM 6.1530 -75.2690 121° Southeast 499 574 33,000  Level FlightAware ADS-B
Thu 02:27:37 AM 6.1090 -75.2010 123° Southeast 498 573 33,000  Level FlightAware ADS-B
Thu 02:28:13 AM 6.0710 -75.1410 122° Southeast 498 573 33,000  Level FlightAware ADS-B
Thu 02:28:49 AM 6.0320 -75.0820 124° Southeast 498 573 33,000  Level FlightAware ADS-B
Thu 02:29:26 AM 5.9930 -75.0210 123° Southeast 498 573 33,000  Level FlightAware ADS-B
Thu 02:30:02 AM 5.9540 -74.9610 123° Southeast 498 573 33,000  Level FlightAware ADS-B
Thu 02:30:38 AM 5.9160 -74.9020 123° Southeast 498 573 33,000  Level FlightAware ADS-B
Thu 02:31:14 AM 5.8780 -74.8420 122° Southeast 498 573 33,000  Level FlightAware ADS-B
Thu 02:31:50 AM 5.8390 -74.7830 124° Southeast 498 573 33,000  Level FlightAware ADS-B
Thu 02:32:20 AM 5.5930 -74.7740 178° South 496 571 33,000  Level FlightAware ADS-B
Thu 02:32:57 AM 5.5330 -74.7110 134° Southeast 494 568 33,000  Level FlightAware ADS-B
Thu 02:33:33 AM 5.4760 -74.6510 134° Southeast 493 567 33,000  Level FlightAware ADS-B
Thu 02:34:09 AM 5.4200 -74.5920 134° Southeast 493 567 33,000  Level FlightAware ADS-B
Thu 02:34:41 AM 5.3690 -74.5380 133° Southeast 492 566 33,000  Level FlightAware ADS-B
Thu 02:35:17 AM 5.3120 -74.4780 134° Southeast 492 566 33,000  Level FlightAware ADS-B
Thu 02:35:53 AM 5.2560 -74.4190 134° Southeast 490 564 33,000  Level FlightAware ADS-B
Thu 02:36:29 AM 5.2000 -74.3600 134° Southeast 489 563 33,000  Level FlightAware ADS-B
Thu 02:37:01 AM 5.1490 -74.3070 134° Southeast 490 564 33,000  Level FlightAware ADS-B
Thu 02:37:37 AM 5.0930 -74.2480 134° Southeast 490 564 33,000  Level FlightAware ADS-B
Thu 02:38:12 AM 5.0390 -74.1920 134° Southeast 491 565 33,000  Level FlightAware ADS-B
Thu 02:38:49 AM 4.9790 -74.1290 134° Southeast 493 567 33,000  Level FlightAware ADS-B
Thu 02:39:21 AM 4.9280 -74.0760 134° Southeast 494 568 33,000  Level FlightAware ADS-B
Thu 02:39:53 AM 4.8790 -74.0240 133° Southeast 494 568 33,000  Level FlightAware ADS-B
Thu 02:40:31 AM 4.8180 -73.9610 134° Southeast 493 567 33,000  Level FlightAware ADS-B
Thu 02:41:07 AM 4.7610 -73.9010 134° Southeast 490 564 33,000  Level FlightAware ADS-B
Thu 02:41:43 AM 4.7050 -73.8420 134° Southeast 488 562 33,000  Level FlightAware ADS-B
Thu 02:42:15 AM 4.6550 -73.7900 134° Southeast 486 559 33,000  Level FlightAware ADS-B
Thu 02:42:51 AM 4.5990 -73.7310 134° Southeast 488 562 33,000  Level FlightAware ADS-B
Thu 02:43:27 AM 4.5420 -73.6710 134° Southeast 488 562 33,000  Level FlightAware ADS-B
Thu 02:44:03 AM 4.4870 -73.6130 134° Southeast 488 562 33,000  Level FlightAware ADS-B
Thu 02:44:35 AM 4.4370 -73.5610 134° Southeast 487 560 33,000  Level FlightAware ADS-B
Thu 02:45:13 AM 4.3760 -73.4980 134° Southeast 487 560 33,000  Level FlightAware ADS-B
Thu 02:45:49 AM 4.3200 -73.4390 134° Southeast 488 562 33,000  Level FlightAware ADS-B
Thu 02:46:21 AM 4.2710 -73.3880 134° Southeast 487 560 33,000  Level FlightAware ADS-B
Thu 02:46:57 AM 4.2140 -73.3290 134° Southeast 486 559 33,000  Level FlightAware ADS-B
Thu 02:47:33 AM 4.1580 -73.2700 134° Southeast 486 559 33,000  Level FlightAware ADS-B
Thu 02:48:05 AM 4.1080 -73.2180 134° Southeast 487 560 33,000  Level FlightAware ADS-B
Thu 02:48:39 AM 4.0640 -73.1700 133° Southeast 487 560 33,000  Level FlightAware ADS-B
Thu 02:49:15 AM 4.0160 -73.1190 133° Southeast 487 560 33,000  Level FlightAware ADS-B
Thu 02:49:51 AM 3.9690 -73.0690 133° Southeast 487 560 33,000  Level FlightAware ADS-B
Thu 02:50:27 AM 3.9220 -73.0180 133° Southeast 487 560 33,000  Level FlightAware ADS-B
Thu 02:51:01 AM 3.8780 -72.9710 133° Southeast 487 560 33,000  Level FlightAware ADS-B
Thu 02:51:38 AM 3.8300 -72.9190 133° Southeast 487 560 33,000  Level FlightAware ADS-B
Thu 02:52:14 AM 3.7830 -72.8680 133° Southeast 487 560 33,000  Level FlightAware ADS-B
Thu 02:52:50 AM 3.7360 -72.8180 133° Southeast 487 560 33,000  Level FlightAware ADS-B
Thu 02:53:26 AM 3.6890 -72.7670 133° Southeast 487 560 33,000  Level FlightAware ADS-B
Thu 02:54:03 AM 3.6400 -72.7150 133° Southeast 487 560 33,000  Level FlightAware ADS-B
Thu 02:54:39 AM 3.5930 -72.6650 133° Southeast 487 560 33,000  Level FlightAware ADS-B
Thu 02:55:15 AM 3.5460 -72.6140 133° Southeast 487 560 33,000  Level FlightAware ADS-B
Thu 02:55:51 AM 3.4990 -72.5640 133° Southeast 487 560 33,000  Level FlightAware ADS-B
Thu 02:56:27 AM 3.4520 -72.5130 133° Southeast 487 560 33,000  Level FlightAware ADS-B
Thu 02:57:03 AM 3.4050 -72.4630 133° Southeast 487 560 33,000  Level FlightAware ADS-B
Thu 02:57:40 AM 3.3570 -72.4110 133° Southeast 487 560 33,000  Level FlightAware ADS-B
Thu 03:00:00 AM 3.1253 -72.2019 138° Southeast  Level Estimated
Thu 03:01:00 AM 3.0260 -72.1123 138° Southeast  Level Estimated
Thu 03:02:00 AM 2.9267 -72.0227 138° Southeast  Level Estimated
Thu 03:03:00 AM 2.8274 -71.9331 138° Southeast  Level Estimated
Thu 03:04:00 AM 2.7280 -71.8436 138° Southeast  Level Estimated
Thu 03:05:00 AM 2.6287 -71.7540 138° Southeast  Level Estimated
Thu 03:06:00 AM 2.5294 -71.6645 138° Southeast  Level Estimated
Thu 03:07:00 AM 2.4300 -71.5750 138° Southeast  Level Estimated
Thu 03:08:00 AM 2.3306 -71.4855 138° Southeast  Level Estimated
Thu 03:09:00 AM 2.2313 -71.3960 138° Southeast  Level Estimated
Thu 03:10:00 AM 2.1319 -71.3065 138° Southeast  Level Estimated
Thu 03:11:00 AM 2.0325 -71.2171 138° Southeast  Level Estimated
Thu 03:12:00 AM 1.9332 -71.1276 138° Southeast  Level Estimated
Thu 03:13:00 AM 1.8338 -71.0382 138° Southeast  Level Estimated
Thu 03:14:00 AM 1.7344 -70.9488 138° Southeast  Level Estimated
Thu 03:15:00 AM 1.6350 -70.8594 138° Southeast  Level Estimated
Thu 03:16:00 AM 1.5356 -70.7699 138° Southeast  Level Estimated
Thu 03:17:00 AM 1.4362 -70.6805 138° Southeast  Level Estimated
Thu 03:18:00 AM 1.3368 -70.5911 138° Southeast  Level Estimated
Thu 03:19:00 AM 1.2374 -70.5018 138° Southeast  Level Estimated
Thu 03:20:00 AM 1.1380 -70.4124 138° Southeast  Level Estimated
Thu 03:21:00 AM 1.0395 -70.3238 138° Southeast  Level Estimated
Thu 03:22:00 AM 0.9409 -70.2352 138° Southeast  Level Estimated
Thu 03:23:00 AM 0.8424 -70.1467 138° Southeast  Level Estimated
Thu 03:24:00 AM 0.7439 -70.0581 138° Southeast  Level Estimated
Thu 03:25:00 AM 0.6453 -69.9695 138° Southeast  Level Estimated
Thu 03:26:00 AM 0.5468 -69.8810 138° Southeast  Level Estimated
Thu 03:27:00 AM 0.4482 -69.7924 138° Southeast  Level Estimated
Thu 03:28:00 AM 0.3497 -69.7039 138° Southeast  Level Estimated
Thu 03:29:00 AM 0.2512 -69.6153 138° Southeast  Level Estimated
Thu 03:30:00 AM 0.1526 -69.5268 138° Southeast  Level Estimated
Thu 03:31:00 AM 0.0541 -69.4382 138° Southeast  Level Estimated
Thu 03:32:00 AM -0.0444 -69.3497 138° Southeast  Level Estimated
Thu 03:33:00 AM -0.1430 -69.2611 138° Southeast  Level Estimated
Thu 03:34:00 AM -0.2415 -69.1726 138° Southeast  Level Estimated
Thu 03:35:00 AM -0.3401 -69.0840 138° Southeast  Level Estimated
Thu 03:36:00 AM -0.4386 -68.9955 138° Southeast  Level Estimated
Thu 03:37:00 AM -0.5372 -68.9069 138° Southeast  Level Estimated
Thu 03:38:00 AM -0.6357 -68.8184 138° Southeast  Level Estimated
Thu 03:39:00 AM -0.7342 -68.7298 138° Southeast  Level Estimated
Thu 03:40:00 AM -0.8328 -68.6412 138° Southeast  Level Estimated
Thu 03:41:00 AM -0.9313 -68.5527 138° Southeast  Level Estimated
Thu 03:42:00 AM -1.0298 -68.4641 138° Southeast  Level Estimated
Thu 03:43:00 AM -1.1284 -68.3755 138° Southeast  Level Estimated
Thu 03:44:00 AM -1.2269 -68.2869 138° Southeast  Level Estimated
Thu 03:45:00 AM -1.3254 -68.1983 138° Southeast  Level Estimated
Thu 03:46:00 AM -1.4239 -68.1097 138° Southeast  Level Estimated
Thu 03:47:00 AM -1.5224 -68.0211 138° Southeast  Level Estimated
Thu 03:48:00 AM -1.6209 -67.9325 138° Southeast  Level Estimated
Thu 03:49:00 AM -1.7195 -67.8439 138° Southeast  Level Estimated
Thu 03:50:00 AM -1.8180 -67.7553 138° Southeast  Level Estimated
Thu 03:51:00 AM -1.9165 -67.6666 138° Southeast  Level Estimated
Thu 03:52:00 AM -2.0150 -67.5780 138° Southeast  Level Estimated
Thu 03:53:00 AM -2.1135 -67.4893 138° Southeast  Level Estimated
Thu 03:54:00 AM -2.2119 -67.4007 138° Southeast  Level Estimated
Thu 03:55:00 AM -2.3104 -67.3120 138° Southeast  Level Estimated
Thu 03:56:00 AM -2.4089 -67.2233 138° Southeast  Level Estimated
Thu 03:57:00 AM -2.5074 -67.1346 138° Southeast  Level Estimated
Thu 03:58:00 AM -2.6058 -67.0458 138° Southeast  Level Estimated
Thu 03:59:00 AM -2.7043 -66.9571 138° Southeast  Level Estimated
Thu 04:00:00 AM -2.8027 -66.8683 138° Southeast  Level Estimated
Thu 04:01:00 AM -2.9012 -66.7796 138° Southeast  Level Estimated
Thu 04:02:00 AM -2.9996 -66.6908 138° Southeast  Level Estimated
Thu 04:03:00 AM -3.0980 -66.6020 138° Southeast  Level Estimated
Thu 04:04:00 AM -3.1965 -66.5132 138° Southeast  Level Estimated
Thu 04:05:00 AM -3.2949 -66.4243 138° Southeast  Level Estimated
Thu 04:06:00 AM -3.3933 -66.3355 138° Southeast  Level Estimated
Thu 04:07:00 AM -3.4917 -66.2466 138° Southeast  Level Estimated
Thu 04:08:00 AM -3.5901 -66.1577 138° Southeast  Level Estimated
Thu 04:09:00 AM -3.6885 -66.0688 138° Southeast  Level Estimated
Thu 04:10:00 AM -3.7868 -65.9799 138° Southeast  Level Estimated
Thu 04:11:00 AM -3.8852 -65.8909 138° Southeast  Level Estimated
Thu 04:12:00 AM -3.9835 -65.8020 138° Southeast  Level Estimated
Thu 04:13:00 AM -4.0819 -65.7130 138° Southeast  Level Estimated
Thu 04:14:00 AM -4.1802 -65.6240 138° Southeast  Level Estimated
Thu 04:15:00 AM -4.2785 -65.5349 138° Southeast  Level Estimated
Thu 04:16:00 AM -4.3768 -65.4459 138° Southeast  Level Estimated
Thu 04:17:00 AM -4.4751 -65.3568 138° Southeast  Level Estimated
Thu 04:18:00 AM -4.5734 -65.2677 138° Southeast  Level Estimated
Thu 04:19:00 AM -4.6717 -65.1786 138° Southeast  Level Estimated
Thu 04:20:00 AM -4.7700 -65.0894 138° Southeast  Level Estimated
Thu 04:21:00 AM -4.8682 -65.0002 138° Southeast  Level Estimated
Thu 04:22:00 AM -4.9665 -64.9110 138° Southeast  Level Estimated
Thu 04:23:00 AM -5.0647 -64.8218 138° Southeast  Level Estimated
Thu 04:24:00 AM -5.1629 -64.7326 138° Southeast  Level Estimated
Thu 04:25:00 AM -5.2611 -64.6433 138° Southeast  Level Estimated
Thu 04:26:00 AM -5.3594 -64.5540 138° Southeast  Level Estimated
Thu 04:27:00 AM -5.4575 -64.4646 138° Southeast  Level Estimated
Thu 04:28:00 AM -5.5557 -64.3753 138° Southeast  Level Estimated
Thu 04:29:00 AM -5.6539 -64.2859 138° Southeast  Level Estimated
Thu 04:30:00 AM -5.7520 -64.1964 138° Southeast  Level Estimated
Thu 04:31:00 AM -5.8501 -64.1070 138° Southeast  Level Estimated
Thu 04:32:00 AM -5.9483 -64.0175 138° Southeast  Level Estimated
Thu 04:33:00 AM -6.0464 -63.9279 138° Southeast  Level Estimated
Thu 04:34:00 AM -6.1445 -63.8384 138° Southeast  Level Estimated
Thu 04:35:00 AM -6.2425 -63.7488 138° Southeast  Level Estimated
Thu 04:36:00 AM -6.3406 -63.6592 138° Southeast  Level Estimated
Thu 04:37:00 AM -6.4386 -63.5695 138° Southeast  Level Estimated
Thu 04:38:00 AM -6.5367 -63.4798 138° Southeast  Level Estimated
Thu 04:39:00 AM -6.6347 -63.3901 138° Southeast  Level Estimated
Thu 04:40:00 AM -6.7326 -63.3003 138° Southeast  Level Estimated
Thu 04:41:00 AM -6.8306 -63.2105 138° Southeast  Level Estimated
Thu 04:42:00 AM -6.9286 -63.1207 138° Southeast  Level Estimated
Thu 04:43:00 AM -7.0265 -63.0308 138° Southeast  Level Estimated
Thu 04:44:00 AM -7.1245 -62.9409 138° Southeast  Level Estimated
Thu 04:45:00 AM -7.2224 -62.8510 138° Southeast  Level Estimated
Thu 04:46:00 AM -7.3203 -62.7610 138° Southeast  Level Estimated
Thu 04:47:00 AM -7.4181 -62.6709 138° Southeast  Level Estimated
Thu 04:48:00 AM -7.5160 -62.5809 138° Southeast  Level Estimated
Thu 04:49:00 AM -7.6138 -62.4908 138° Southeast  Level Estimated
Thu 04:50:00 AM -7.7116 -62.4006 138° Southeast  Level Estimated
Thu 04:51:00 AM -7.8095 -62.3104 138° Southeast  Level Estimated
Thu 04:52:00 AM -7.9072 -62.2202 138° Southeast  Level Estimated
Thu 04:53:00 AM -8.0052 -62.1297 138° Southeast  Level Estimated
Thu 04:54:00 AM -8.1031 -62.0393 138° Southeast  Level Estimated
Thu 04:55:00 AM -8.2010 -61.9487 138° Southeast  Level Estimated
Thu 04:56:00 AM -8.2989 -61.8582 138° Southeast  Level Estimated
Thu 04:57:00 AM -8.3967 -61.7676 138° Southeast  Level Estimated
Thu 04:58:00 AM -8.4946 -61.6769 137° Southeast  Level Estimated
Thu 04:59:00 AM -8.5924 -61.5862 137° Southeast  Level Estimated
Thu 05:00:00 AM -8.6902 -61.4954 137° Southeast  Level Estimated
Thu 05:01:00 AM -8.7879 -61.4046 137° Southeast  Level Estimated
Thu 05:02:00 AM -8.8857 -61.3138 137° Southeast  Level Estimated
Thu 05:03:00 AM -8.9834 -61.2229 137° Southeast  Level Estimated
Thu 05:04:00 AM -9.0811 -61.1319 137° Southeast  Level Estimated
Thu 05:05:00 AM -9.1788 -61.0409 137° Southeast  Level Estimated
Thu 05:06:00 AM -9.2765 -60.9499 137° Southeast  Level Estimated
Thu 05:07:00 AM -9.3741 -60.8588 137° Southeast  Level Estimated
Thu 05:08:00 AM -9.4717 -60.7676 137° Southeast  Level Estimated
Thu 05:09:00 AM -9.5693 -60.6764 137° Southeast  Level Estimated
Thu 05:10:00 AM -9.6669 -60.5852 137° Southeast  Level Estimated
Thu 05:11:00 AM -9.7644 -60.4939 137° Southeast  Level Estimated
Thu 05:12:00 AM -9.8619 -60.4025 137° Southeast  Level Estimated
Thu 05:13:00 AM -9.9594 -60.3111 137° Southeast  Level Estimated
Thu 05:14:00 AM -10.0567 -60.2198 137° Southeast  Level Estimated
Thu 05:15:00 AM -10.1540 -60.1284 137° Southeast  Level Estimated
Thu 05:16:00 AM -10.2513 -60.0370 137° Southeast  Level Estimated
Thu 05:17:00 AM -10.3485 -59.9455 137° Southeast  Level Estimated
Thu 05:18:00 AM -10.4457 -59.8540 137° Southeast  Level Estimated
Thu 05:19:00 AM -10.5428 -59.7624 137° Southeast  Level Estimated
Thu 05:20:00 AM -10.6400 -59.6708 137° Southeast  Level Estimated
Thu 05:21:00 AM -10.7371 -59.5791 137° Southeast  Level Estimated
Thu 05:22:00 AM -10.8342 -59.4873 137° Southeast  Level Estimated
Thu 05:23:00 AM -10.9312 -59.3955 137° Southeast  Level Estimated
Thu 05:24:00 AM -11.0283 -59.3036 137° Southeast  Level Estimated
Thu 05:25:00 AM -11.1253 -59.2117 137° Southeast  Level Estimated
Thu 05:26:00 AM -11.2222 -59.1197 137° Southeast  Level Estimated
Thu 05:27:00 AM -11.3192 -59.0276 137° Southeast  Level Estimated
Thu 05:28:00 AM -11.4161 -58.9355 137° Southeast  Level Estimated
Thu 05:29:00 AM -11.5130 -58.8433 137° Southeast  Level Estimated
Thu 05:30:00 AM -11.6099 -58.7510 137° Southeast  Level Estimated
Thu 05:31:00 AM -11.7067 -58.6587 137° Southeast  Level Estimated
Thu 05:32:00 AM -11.8035 -58.5663 137° Southeast  Level Estimated
Thu 05:33:00 AM -11.9003 -58.4739 137° Southeast  Level Estimated
Thu 05:34:00 AM -11.9970 -58.3814 137° Southeast  Level Estimated
Thu 05:35:00 AM -12.0937 -58.2888 137° Southeast  Level Estimated
Thu 05:36:00 AM -12.1904 -58.1962 137° Southeast  Level Estimated
Thu 05:37:00 AM -12.2871 -58.1035 137° Southeast  Level Estimated
Thu 05:38:00 AM -12.3837 -58.0107 137° Southeast  Level Estimated
Thu 05:39:00 AM -12.4803 -57.9178 137° Southeast  Level Estimated
Thu 05:40:00 AM -12.5768 -57.8249 137° Southeast  Level Estimated
Thu 05:41:00 AM -12.6734 -57.7319 137° Southeast  Level Estimated
Thu 05:42:00 AM -12.7698 -57.6389 137° Southeast  Level Estimated
Thu 05:43:00 AM -12.8663 -57.5457 137° Southeast  Level Estimated
Thu 05:44:00 AM -12.9627 -57.4525 137° Southeast  Level Estimated
Thu 05:45:00 AM -13.0591 -57.3592 137° Southeast  Level Estimated
Thu 05:46:00 AM -13.1555 -57.2659 137° Southeast  Level Estimated
Thu 05:47:00 AM -13.2518 -57.1725 137° Southeast  Level Estimated
Thu 05:48:00 AM -13.3481 -57.0790 137° Southeast  Level Estimated
Thu 05:49:00 AM -13.4444 -56.9854 137° Southeast  Level Estimated
Thu 05:50:00 AM -13.5406 -56.8918 137° Southeast  Level Estimated
Thu 05:51:00 AM -13.6368 -56.7980 137° Southeast  Level Estimated
Thu 05:52:00 AM -13.7329 -56.7042 137° Southeast  Level Estimated
Thu 05:53:00 AM -13.8290 -56.6104 137° Southeast  Level Estimated
Thu 05:54:00 AM -13.9251 -56.5164 137° Southeast  Level Estimated
Thu 05:55:00 AM -14.0212 -56.4224 136° Southeast  Level Estimated
Thu 05:56:00 AM -14.1172 -56.3283 136° Southeast  Level Estimated
Thu 05:57:00 AM -14.2132 -56.2341 136° Southeast  Level Estimated
Thu 05:58:00 AM -14.3091 -56.1398 136° Southeast  Level Estimated
Thu 05:59:00 AM -14.4050 -56.0455 136° Southeast  Level Estimated
Thu 06:00:00 AM -14.5008 -55.9510 136° Southeast  Level Estimated
Thu 06:01:00 AM -14.5967 -55.8565 136° Southeast  Level Estimated
Thu 06:02:00 AM -14.6925 -55.7619 136° Southeast  Level Estimated
Thu 06:03:00 AM -14.7882 -55.6673 136° Southeast  Level Estimated
Thu 06:04:00 AM -14.8839 -55.5725 136° Southeast  Level Estimated
Thu 06:05:00 AM -14.9796 -55.4776 136° Southeast  Level Estimated
Thu 06:06:00 AM -15.0752 -55.3827 136° Southeast  Level Estimated
Thu 06:07:00 AM -15.1708 -55.2877 136° Southeast  Level Estimated
Thu 06:08:00 AM -15.2664 -55.1926 136° Southeast  Level Estimated
Thu 06:09:00 AM -15.3619 -55.0974 136° Southeast  Level Estimated
Thu 06:10:00 AM -15.4573 -55.0021 136° Southeast  Level Estimated
Thu 06:11:00 AM -15.5528 -54.9068 136° Southeast  Level Estimated
Thu 06:12:00 AM -15.6482 -54.8113 136° Southeast  Level Estimated
Thu 06:13:00 AM -15.7435 -54.7158 136° Southeast  Level Estimated
Thu 06:14:00 AM -15.8388 -54.6202 136° Southeast  Level Estimated
Thu 06:15:00 AM -15.9341 -54.5244 136° Southeast  Level Estimated
Thu 06:16:00 AM -16.0293 -54.4286 136° Southeast  Level Estimated
Thu 06:17:00 AM -16.1245 -54.3327 136° Southeast  Level Estimated
Thu 06:18:00 AM -16.2196 -54.2367 136° Southeast  Level Estimated
Thu 06:19:00 AM -16.3147 -54.1406 136° Southeast  Level Estimated
Thu 06:20:00 AM -16.4098 -54.0445 136° Southeast  Level Estimated
Thu 06:21:00 AM -16.5048 -53.9482 136° Southeast  Level Estimated
Thu 06:22:00 AM -16.5998 -53.8518 136° Southeast  Level Estimated
Thu 06:23:00 AM -16.6947 -53.7553 136° Southeast  Level Estimated
Thu 06:24:00 AM -16.7895 -53.6588 136° Southeast  Level Estimated
Thu 06:25:00 AM -16.8844 -53.5621 136° Southeast  Level Estimated
Thu 06:26:00 AM -16.9792 -53.4654 136° Southeast  Level Estimated
Thu 06:27:00 AM -17.0739 -53.3685 136° Southeast  Level Estimated
Thu 06:28:00 AM -17.1686 -53.2716 136° Southeast  Level Estimated
Thu 06:29:00 AM -17.2632 -53.1745 136° Southeast  Level Estimated
Thu 06:30:00 AM -17.3578 -53.0774 136° Southeast  Level Estimated
Thu 06:31:00 AM -17.4524 -52.9801 136° Southeast  Level Estimated
Thu 06:32:00 AM -17.5469 -52.8828 136° Southeast  Level Estimated
Thu 06:33:00 AM -17.6413 -52.7853 135° Southeast  Level Estimated
Thu 06:34:00 AM -17.7358 -52.6878 135° Southeast  Level Estimated
Thu 06:35:00 AM -17.8301 -52.5901 135° Southeast  Level Estimated
Thu 06:36:00 AM -17.9244 -52.4924 135° Southeast  Level Estimated
Thu 06:37:00 AM -18.0187 -52.3945 135° Southeast  Level Estimated
Thu 06:37:23 AM -19.1340 -50.5240 135° Southeast 513 590 33,000  Level FlightAware ADS-B
Thu 06:37:57 AM -19.1910 -50.4620 134° Southeast 514 592 33,000  Level FlightAware ADS-B
Thu 06:38:00 AM -18.1129 -52.2965 135° Southeast  Level Estimated
Thu 06:38:35 AM -19.2530 -50.3930 134° Southeast 513 590 33,000  Level FlightAware ADS-B
Thu 06:39:11 AM -19.3130 -50.3280 134° Southeast 514 592 33,000  Level FlightAware ADS-B
Thu 06:39:43 AM -19.3640 -50.2730 135° Southeast 512 589 33,000  Level FlightAware ADS-B
Thu 06:40:19 AM -19.4240 -50.2060 134° Southeast 512 589 33,000  Level FlightAware ADS-B
Thu 06:40:59 AM -19.4900 -50.1330 134° Southeast 512 589 33,000  Level FlightAware ADS-B
Thu 06:41:35 AM -19.5470 -50.0710 134° Southeast 512 589 33,000  Level FlightAware ADS-B
Thu 06:42:18 AM -19.6060 -50.0040 133° Southeast 512 589 33,000  Level FlightAware ADS-B
Thu 06:43:03 AM -19.6940 -49.9100 135° Southeast 514 592 33,000  Level FlightAware ADS-B
Thu 06:43:43 AM -19.7620 -49.8350 134° Southeast 513 590 33,000  Level FlightAware ADS-B
Thu 06:44:18 AM -19.8190 -49.7730 134° Southeast 511 588 33,000  Level FlightAware ADS-B
Thu 06:44:51 AM -19.8750 -49.7120 134° Southeast 510 587 33,000  Level FlightAware ADS-B
Thu 06:45:27 AM -19.9330 -49.6480 134° Southeast 510 587 33,000  Level FlightAware ADS-B
Thu 06:46:01 AM -19.9890 -49.5860 134° Southeast 511 588 33,000  Level FlightAware ADS-B
Thu 06:46:36 AM -20.0470 -49.5230 134° Southeast 512 589 33,000  Level FlightAware ADS-B
Thu 06:47:13 AM -20.1080 -49.4570 135° Southeast 511 588 33,000  Level FlightAware ADS-B
Thu 06:47:45 AM -20.1590 -49.4000 134° Southeast 512 589 33,000  Level FlightAware ADS-B
Thu 06:48:21 AM -20.2200 -49.3330 134° Southeast 512 589 33,000  Level FlightAware ADS-B
Thu 06:48:59 AM -20.2820 -49.2640 134° Southeast 512 589 33,000  Level FlightAware ADS-B
Thu 06:49:31 AM -20.3350 -49.2060 134° Southeast 514 592 33,000 -88 Level FlightAware ADS-B
Thu 06:50:07 AM -20.3920 -49.1420 134° Southeast 512 589 32,900 -740 Descending FlightAware ADS-B
Thu 06:50:44 AM -20.4520 -49.0760 134° Southeast 516 594 32,100 -1,324 Descending FlightAware ADS-B
Thu 06:51:15 AM -20.5060 -49.0160 134° Southeast 518 596 31,400 -1,015 Descending FlightAware ADS-B
Thu 06:51:49 AM -20.5620 -48.9550 134° Southeast 518 596 31,000 -329 Descending FlightAware ADS-B
Thu 06:52:28 AM -20.6280 -48.8810 134° Southeast 517 595 31,000  Level FlightAware ADS-B
Thu 06:53:00 AM -20.6810 -48.8220 134° Southeast 518 596 31,000  Level FlightAware ADS-B
Thu 06:53:36 AM -20.7420 -48.7540 134° Southeast 519 597 31,000  Level FlightAware ADS-B
Thu 06:54:13 AM -20.7950 -48.6820 128° Southeast 523 602 31,000  Level FlightAware ADS-B
Thu 06:54:49 AM -20.8230 -48.5920 108° East 525 604 31,000  Level FlightAware ADS-B
Thu 06:55:20 AM -20.8270 -48.5110 93° East 522 601 31,000  Level FlightAware ADS-B
Thu 06:55:56 AM -20.8280 -48.4180 91° East 522 601 31,000  Level FlightAware ADS-B
Thu 06:56:29 AM -20.8290 -48.3340 91° East 522 601 31,000  Level FlightAware ADS-B
Thu 06:57:05 AM -20.8300 -48.2430 91° East 514 592 31,000  Level FlightAware ADS-B
Thu 06:57:42 AM -20.8320 -48.1470 91° East 513 590 31,000  Level FlightAware ADS-B
Thu 06:58:14 AM -20.8330 -48.0670 91° East 512 589 31,000  Level FlightAware ADS-B
Thu 06:58:39 AM -20.8350 -48.0040 92° East 509 586 31,000  Level FlightAware ADS-B
Thu 06:59:10 AM -20.8610 -47.9300 111° Southeast 507 583 31,000  Level FlightAware ADS-B
Thu 06:59:36 AM -20.9010 -47.8840 133° Southeast 502 578 31,000  Level FlightAware ADS-B
Thu 07:00:08 AM -20.9670 -47.8470 152° Southeast 495 570 31,000  Level FlightAware ADS-B
Thu 07:00:44 AM -21.0410 -47.8110 156° South 492 566 31,000  Level FlightAware ADS-B
Thu 07:01:20 AM -21.1140 -47.7750 155° Southeast 492 566 31,000  Level FlightAware ADS-B
Thu 07:01:56 AM -21.1900 -47.7380 156° South 492 566 31,000  Level FlightAware ADS-B
Thu 07:02:28 AM -21.2570 -47.7050 155° Southeast 493 567 31,000  Level FlightAware ADS-B
Thu 07:03:04 AM -21.3300 -47.6690 155° Southeast 492 566 31,000  Level FlightAware ADS-B
Thu 07:03:40 AM -21.4070 -47.6310 155° Southeast 493 567 31,000  Level FlightAware ADS-B
Thu 07:04:16 AM -21.4820 -47.5940 155° Southeast 493 567 31,000  Level FlightAware ADS-B
Thu 07:04:46 AM -21.5420 -47.5640 155° Southeast 493 567 31,000  Level FlightAware ADS-B
Thu 07:05:25 AM -21.6210 -47.5250 155° Southeast 493 567 31,000  Level FlightAware ADS-B
Thu 07:06:02 AM -21.6990 -47.4870 156° South 493 567 31,000  Level FlightAware ADS-B
Thu 07:06:34 AM -21.7680 -47.4520 155° Southeast 493 567 31,000  Level FlightAware ADS-B
Thu 07:07:09 AM -21.8390 -47.4170 155° Southeast 493 567 31,000 -750 Level FlightAware ADS-B
Thu 07:07:46 AM -21.9170 -47.3780 155° Southeast 483 556 30,100 -1,739 Descending FlightAware ADS-B
Thu 07:08:18 AM -21.9820 -47.3470 156° South 475 547 29,000 -2,029 Descending FlightAware ADS-B
Thu 07:08:54 AM -22.0530 -47.3160 158° South 468 539 27,800 -1,946 Descending FlightAware ADS-B
Thu 07:09:32 AM -22.1310 -47.2840 159° South 458 527 26,600 -1,800 Descending FlightAware ADS-B
Thu 07:10:04 AM -22.1930 -47.2590 160° South 450 518 25,700 -2,029 Descending FlightAware ADS-B
Thu 07:10:40 AM -22.2630 -47.2300 159° South 447 514 24,300 -2,239 Descending FlightAware ADS-B
Thu 07:11:11 AM -22.3160 -47.2080 159° South 445 512 23,200 -2,029 Descending FlightAware ADS-B
Thu 07:11:48 AM -22.3930 -47.1760 159° South 437 503 22,000 -986 Descending FlightAware ADS-B
Thu 07:12:24 AM -22.4620 -47.1470 159° South 438 504 22,000 -740 Level FlightAware ADS-B
Thu 07:13:01 AM -22.5280 -47.1180 158° South 415 478 21,100 -917 Descending FlightAware ADS-B
Thu 07:13:36 AM -22.5890 -47.0920 159° South 377 434 20,900 -882 Descending FlightAware ADS-B
Thu 07:14:09 AM -22.6410 -47.0710 160° South 365 420 20,100 -1,565 Descending FlightAware ADS-B
Thu 07:14:45 AM -22.6970 -47.0470 158° South 359 413 19,100 -1,583 Descending FlightAware ADS-B
Thu 07:15:21 AM -22.7530 -47.0240 159° South 348 400 18,200 -1,765 Descending FlightAware ADS-B
Thu 07:15:53 AM -22.8020 -47.0030 158° South 344 396 17,100 -1,941 Descending FlightAware ADS-B
Thu 07:16:29 AM -22.8540 -46.9820 160° South 337 388 16,000 -1,750 Descending FlightAware ADS-B
Thu 07:17:05 AM -22.9060 -46.9600 159° South 327 376 15,000 -1,833 Descending FlightAware ADS-B
Thu 07:17:41 AM -22.9570 -46.9380 158° South 325 374 13,800 -1,941 Descending FlightAware ADS-B
Thu 07:18:13 AM -23.0020 -46.9190 159° South 321 369 12,800 -1,676 Descending FlightAware ADS-B
Thu 07:18:49 AM -23.0500 -46.8990 159° South 308 354 11,900 -1,946 Descending FlightAware ADS-B
Thu 07:19:27 AM -23.1010 -46.8780 159° South 314 361 10,400 -1,966 Descending FlightAware ADS-B
Thu 07:19:47 AM -23.1290 -46.8660 158° South 311 358 10,000 -1,500 Descending FlightAware ADS-B
Thu 07:20:07 AM -23.1560 -46.8540 158° South 307 353 9,400 -1,350 Descending FlightAware ADS-B
Thu 07:20:27 AM -23.1810 -46.8440 160° South 292 336 9,100 -900 Descending FlightAware ADS-B
Thu 07:20:47 AM -23.2060 -46.8330 158° South 277 319 8,800 -1,000 Descending FlightAware ADS-B
Thu 07:21:09 AM -23.2310 -46.8230 160° South 260 299 8,400 -977 Descending FlightAware ADS-B
Thu 07:21:30 AM -23.2540 -46.8130 158° South 244 281 8,100 -1,143 Descending FlightAware ADS-B
Thu 07:21:51 AM -23.2760 -46.8040 159° South 237 273 7,600 -1,067 Descending FlightAware ADS-B
Thu 07:22:15 AM -23.3000 -46.7930 157° South 232 267 7,300 -450 Descending FlightAware ADS-B
Thu 07:22:31 AM -23.3160 -46.7870 161° South 230 265 7,300 -125 Level FlightAware ADS-B
Thu 07:23:03 AM -23.3490 -46.7730 159° South 233 268 7,200 -346 Descending FlightAware ADS-B
Thu 07:23:23 AM -23.3670 -46.7640 155° Southeast 233 268 7,000 -429 Descending FlightAware ADS-B
Thu 07:23:31 AM -23.3750 -46.7590 150° Southeast 231 266 7,000 -1,034 Level FlightAware ADS-B
Thu 07:23:52 AM -23.3930 -46.7440 143° Southeast 233 268 6,500 -1,350 Descending FlightAware ADS-B
Thu 07:24:11 AM -23.4090 -46.7290 139° Southeast 233 268 6,100 -977 Descending FlightAware ADS-B
Thu 07:24:35 AM -23.4280 -46.7110 139° Southeast 230 265 5,800 -955 Descending FlightAware ADS-B
Thu 07:24:55 AM -23.4430 -46.6960 137° Southeast 227 261 5,400 -1,125 Descending FlightAware ADS-B
Thu 07:25:07 AM -23.4510 -46.6830 124° Southeast 225 259 5,200 -800 Descending FlightAware ADS-B
Thu 07:25:25 AM -23.4600 -46.6660 120° Southeast 227 261 5,000 -682 Descending FlightAware ADS-B
Thu 07:25:51 AM -23.4710 -46.6390 114° Southeast 221 254 4,700 -632 Descending FlightAware ADS-B
Thu 07:26:03 AM -23.4740 -46.6260 104° East 216 249 4,600 -600 Descending FlightAware ADS-B
Thu 07:26:11 AM -23.4730 -46.6170 83° East 210 242 4,500 -600 Descending FlightAware ADS-B
Thu 07:26:33 AM -23.4680 -46.5960 75° East 198 228 4,300 -714 Descending FlightAware ADS-B
Thu 07:26:53 AM -23.4630 -46.5770 74° East 180 207 4,000 -900 Descending FlightAware ADS-B
Thu 07:27:13 AM -23.4590 -46.5610 75° East 160 184 3,700 -955 Descending FlightAware ADS-B
Thu 07:27:37 AM -23.4540 -46.5430 73° East 156 180 3,300 -818 Descending FlightAware ADS-B
Thu 07:27:57 AM -23.4500 -46.5280 74° East 155 178 3,100 -783 Descending FlightAware ADS-B
Thu 07:28:23 AM -23.4450 -46.5090 74° East 156 180 2,700 -783 Descending FlightAware ADS-B
Thu 07:28:43 AM -23.4410 -46.4940 74° East 156 180 2,500 -250 Descending FlightAware ADS-B
Thu 07:29:11 AM -23.4370 -46.4760 76° East 156 180 2,500  Level FlightAware ADS-B

Login

Don't have an account? Register now (free) for customized features, flight alerts, and more!